createdAt,value
2019-02-17T00:02:38.847Z,6.50
2019-02-17T00:05:18.954Z,6.60
2019-02-17T00:07:46.429Z,6.70
2019-02-17T00:10:33.350Z,6.90
2019-02-17T00:13:11.297Z,6.90
2019-02-17T00:15:58.226Z,7.20
2019-02-17T00:18:25.670Z,7.20
2019-02-17T00:21:12.557Z,7.20
2019-02-17T00:23:52.108Z,7.20
2019-02-17T00:26:32.119Z,7.10
2019-02-17T00:29:12.111Z,7.00
2019-02-17T00:31:52.095Z,6.90
2019-02-17T00:34:32.115Z,6.80
2019-02-17T00:37:11.980Z,6.70
2019-02-17T00:39:52.129Z,6.70
2019-02-17T00:42:32.464Z,6.60
2019-02-17T00:45:12.578Z,6.50
2019-02-17T00:47:52.440Z,6.40
2019-02-17T00:50:32.438Z,6.30
2019-02-17T00:53:12.379Z,6.20
2019-02-17T00:58:32.383Z,6.00
2019-02-17T01:01:12.411Z,5.90
2019-02-17T01:03:52.360Z,5.80
2019-02-17T01:06:32.473Z,5.80
2019-02-17T01:09:12.577Z,5.80
2019-02-17T01:11:52.609Z,5.70
2019-02-17T01:14:32.747Z,5.70
2019-02-17T01:17:12.765Z,5.70
2019-02-17T01:19:40.202Z,5.70
2019-02-17T01:22:27.061Z,5.60
2019-02-17T01:25:06.697Z,5.70
2019-02-17T01:27:46.731Z,5.70
2019-02-17T01:30:26.585Z,5.60
2019-02-17T01:33:06.491Z,5.60
2019-02-17T01:35:46.354Z,5.60
2019-02-17T01:38:26.603Z,5.50
2019-02-17T01:41:06.620Z,5.50
2019-02-17T01:43:33.984Z,5.50
2019-02-17T01:46:01.336Z,5.50
2019-02-17T01:48:28.714Z,5.50
2019-02-17T01:50:56.086Z,5.50
2019-02-17T01:53:23.808Z,5.50
2019-02-17T01:55:51.175Z,5.60
2019-02-17T01:58:18.616Z,5.50
2019-02-17T02:00:46.052Z,5.50
2019-02-17T02:03:13.398Z,5.40
2019-02-17T02:05:40.803Z,5.50
2019-02-17T02:08:08.186Z,5.50
2019-02-17T02:10:35.600Z,5.70
2019-02-17T02:13:03.017Z,6.00
2019-02-17T02:15:30.278Z,6.10
2019-02-17T02:17:57.686Z,6.10
2019-02-17T02:20:25.492Z,6.30
2019-02-17T02:22:53.187Z,6.30
2019-02-17T02:25:40.062Z,6.40
2019-02-17T02:28:09.343Z,6.50
2019-02-17T02:30:49.015Z,6.50
2019-02-17T02:33:29.065Z,6.60
2019-02-17T02:36:09.124Z,6.70
2019-02-17T02:38:36.773Z,6.80
2019-02-17T02:41:33.882Z,6.90
2019-02-17T02:44:25.490Z,6.90
2019-02-17T02:47:05.652Z,7.10
2019-02-17T02:49:45.727Z,7.10
2019-02-17T02:52:25.703Z,7.00
2019-02-17T02:55:05.815Z,6.90
2019-02-17T02:57:46.107Z,6.80
2019-02-17T03:00:25.975Z,6.80
2019-02-17T03:02:53.343Z,6.90
2019-02-17T03:05:20.785Z,6.90
2019-02-17T03:07:48.280Z,7.00
2019-02-17T03:10:35.264Z,6.90
2019-02-17T03:13:02.714Z,6.90
2019-02-17T03:15:49.710Z,6.80
2019-02-17T03:18:29.496Z,6.80
2019-02-17T03:21:09.456Z,6.80
2019-02-17T03:23:36.939Z,6.70
2019-02-17T03:26:23.814Z,6.50
2019-02-17T03:29:03.479Z,6.50
2019-02-17T03:31:43.584Z,6.50
2019-02-17T03:34:23.829Z,6.40
2019-02-17T03:37:03.893Z,6.40
2019-02-17T03:39:43.858Z,6.40
2019-02-17T03:42:23.978Z,6.30
2019-02-17T03:45:03.919Z,6.30
2019-02-17T03:47:43.865Z,6.30
2019-02-17T03:50:11.210Z,6.20
2019-02-17T03:52:49.248Z,6.20
2019-02-17T03:55:28.835Z,6.20
2019-02-17T03:58:09.076Z,6.10
2019-02-17T04:00:49.076Z,6.20
2019-02-17T04:03:29.116Z,6.20
2019-02-17T04:06:09.136Z,6.10
2019-02-17T04:08:49.286Z,6.10
2019-02-17T04:11:29.115Z,6.00
2019-02-17T04:13:57.770Z,5.90
2019-02-17T04:16:25.159Z,6.00
2019-02-17T04:19:04.908Z,6.00
2019-02-17T04:21:44.823Z,6.10
2019-02-17T04:24:25.708Z,6.10
2019-02-17T04:26:53.082Z,6.10
2019-02-17T04:29:39.987Z,6.10
2019-02-17T04:32:19.635Z,6.00
2019-02-17T04:34:59.581Z,6.10
2019-02-17T04:37:27.044Z,6.00
2019-02-17T04:40:13.922Z,5.90
2019-02-17T04:42:41.699Z,5.80
2019-02-17T04:45:28.541Z,5.70
2019-02-17T04:48:08.259Z,5.80
2019-02-17T04:50:48.399Z,5.90
2019-02-17T04:53:29.073Z,6.20
2019-02-17T04:56:09.247Z,6.50
2019-02-17T04:58:49.623Z,6.60
2019-02-17T05:01:29.477Z,6.50
2019-02-17T05:04:09.474Z,6.70
2019-02-17T05:06:49.872Z,6.70
2019-02-17T05:09:30.445Z,6.90
2019-02-17T05:12:10.507Z,6.90
2019-02-17T05:14:50.559Z,6.90
2019-02-17T05:17:30.469Z,7.00
2019-02-17T05:20:10.597Z,7.10
2019-02-17T05:22:39.480Z,7.20
2019-02-17T05:25:14.218Z,7.20
2019-02-17T05:27:54.218Z,7.20
2019-02-17T05:30:34.368Z,7.10
2019-02-17T05:33:14.281Z,7.10
2019-02-17T05:35:54.426Z,7.00
2019-02-17T05:38:34.420Z,7.00
2019-02-17T05:41:14.482Z,7.00
2019-02-17T05:43:54.495Z,6.90
2019-02-17T05:46:34.520Z,6.80
2019-02-17T05:49:14.810Z,6.70
2019-02-17T05:51:54.463Z,6.60
2019-02-17T05:54:34.598Z,6.60
2019-02-17T05:57:01.983Z,6.60
2019-02-17T05:59:48.852Z,6.60
2019-02-17T06:04:02.428Z,6.60
2019-02-17T06:06:29.851Z,6.70
2019-02-17T06:09:16.996Z,6.60
2019-02-17T06:11:57.451Z,6.60
2019-02-17T06:14:37.323Z,6.60
2019-02-17T06:17:17.445Z,6.60
2019-02-17T06:19:57.462Z,6.70
2019-02-17T06:22:37.398Z,6.60
2019-02-17T06:25:17.395Z,6.60
2019-02-17T06:27:57.532Z,6.50
2019-02-17T06:30:37.637Z,6.60
2019-02-17T06:33:17.707Z,6.70
2019-02-17T06:35:57.682Z,6.80
2019-02-17T06:38:37.607Z,6.90
2019-02-17T06:41:17.916Z,7.00
2019-02-17T06:43:58.036Z,7.00
2019-02-17T06:46:42.457Z,7.10
2019-02-17T06:49:22.694Z,7.20
2019-02-17T06:52:03.012Z,7.30
2019-02-17T06:54:44.794Z,7.20
2019-02-17T06:57:30.257Z,7.20
2019-02-17T07:00:29.689Z,7.20
2019-02-17T07:03:09.501Z,7.40
2019-02-17T07:05:56.841Z,7.40
2019-02-17T07:08:43.773Z,7.40
2019-02-17T07:11:23.568Z,7.50
2019-02-17T07:14:03.730Z,7.50
2019-02-17T07:16:43.762Z,7.50
2019-02-17T07:19:23.885Z,7.50
2019-02-17T07:22:03.880Z,7.50
2019-02-17T07:24:43.578Z,7.60
2019-02-17T07:27:23.773Z,7.60
2019-02-17T07:30:03.713Z,7.60
2019-02-17T07:32:44.965Z,7.60
2019-02-17T07:35:24.870Z,7.70
2019-02-17T07:37:52.335Z,7.80
2019-02-17T07:40:39.189Z,7.90
2019-02-17T07:43:19.171Z,8.00
2019-02-17T07:45:59.133Z,8.00
2019-02-17T07:48:38.952Z,8.00
2019-02-17T07:51:19.007Z,8.00
2019-02-17T07:53:59.106Z,8.10
2019-02-17T07:56:39.215Z,8.20
2019-02-17T07:59:19.184Z,8.30
2019-02-17T08:01:59.078Z,8.30
2019-02-17T08:04:39.332Z,8.40
2019-02-17T08:07:19.430Z,8.40
2019-02-17T08:09:46.699Z,8.50
2019-02-17T08:12:33.835Z,8.60
2019-02-17T08:15:14.096Z,8.60
2019-02-17T08:17:42.434Z,8.60
2019-02-17T08:20:10.603Z,8.70
2019-02-17T08:22:51.558Z,8.70
2019-02-17T08:31:55.811Z,9.10
2019-02-17T08:34:34.047Z,9.00
2019-02-17T08:37:14.096Z,9.10
2019-02-17T08:39:54.193Z,9.10
2019-02-17T08:42:34.211Z,9.20
2019-02-17T08:45:04.661Z,9.20
2019-02-17T08:47:51.529Z,9.40
2019-02-17T08:50:31.449Z,9.40
2019-02-17T08:53:11.506Z,9.40
2019-02-17T08:55:38.924Z,9.50
2019-02-17T08:58:25.867Z,9.60
2019-02-17T09:01:05.681Z,9.70
2019-02-17T09:03:45.929Z,9.80
2019-02-17T09:06:26.078Z,9.90
2019-02-17T09:09:06.115Z,10.00
2019-02-17T09:11:47.467Z,10.10
2019-02-17T09:14:27.499Z,10.30
2019-02-17T09:17:07.464Z,10.40
2019-02-17T09:19:47.543Z,10.50
2019-02-17T09:22:27.675Z,10.60
2019-02-17T09:25:07.683Z,10.70
2019-02-17T09:27:47.510Z,10.80
2019-02-17T09:30:27.577Z,10.90
2019-02-17T09:33:07.794Z,11.20
2019-02-17T09:35:48.084Z,11.30
2019-02-17T09:38:27.970Z,11.50
2019-02-17T09:41:08.125Z,11.60
2019-02-17T09:43:48.096Z,11.60
2019-02-17T09:46:27.971Z,11.80
2019-02-17T09:49:08.270Z,11.90
2019-02-17T09:51:48.198Z,12.10
2019-02-17T09:54:27.992Z,12.30
2019-02-17T09:57:08.078Z,12.40
2019-02-17T09:59:48.044Z,12.60
2019-02-17T10:02:28.094Z,12.90
2019-02-17T10:05:07.946Z,13.00
2019-02-17T10:07:47.986Z,13.10
2019-02-17T10:10:27.962Z,13.30
2019-02-17T10:13:08.196Z,13.40
2019-02-17T10:15:48.022Z,13.30
2019-02-17T10:18:15.349Z,13.10
2019-02-17T10:21:02.269Z,13.30
2019-02-17T10:23:41.990Z,13.80
2019-02-17T10:26:22.150Z,14.40
2019-02-17T10:29:02.046Z,14.80
2019-02-17T10:31:41.866Z,14.90
2019-02-17T10:34:22.958Z,14.80
2019-02-17T10:37:04.026Z,14.90
2019-02-17T10:39:43.930Z,16.00
2019-02-17T10:42:23.978Z,17.50
2019-02-17T10:45:03.993Z,18.50
2019-02-17T10:47:44.174Z,20.10
2019-02-17T10:50:24.285Z,20.10
2019-02-17T10:53:04.198Z,21.30
2019-02-17T10:55:44.096Z,22.50
2019-02-17T10:58:24.372Z,22.80
2019-02-17T11:01:04.510Z,23.50
2019-02-17T11:03:44.551Z,24.10
2019-02-17T11:06:24.671Z,24.30
2019-02-17T11:12:12.691Z,23.40
2019-02-17T11:14:52.755Z,22.90
2019-02-17T11:17:32.977Z,23.30
2019-02-17T11:20:12.937Z,23.00
2019-02-17T11:22:52.834Z,22.20
2019-02-17T11:25:32.706Z,21.90
2019-02-17T11:28:12.629Z,21.40
2019-02-17T11:30:52.945Z,20.80
2019-02-17T11:33:32.971Z,20.40
2019-02-17T11:36:12.918Z,20.00
2019-02-17T11:38:53.039Z,20.20
2019-02-17T11:41:33.053Z,20.50
2019-02-17T11:44:12.899Z,21.00
2019-02-17T11:46:53.016Z,21.00
2019-02-17T11:49:33.277Z,21.00
2019-02-17T11:52:13.225Z,21.20
2019-02-17T11:54:53.321Z,21.00
2019-02-17T11:57:33.346Z,21.30
2019-02-17T12:00:13.606Z,21.70
2019-02-17T12:02:53.474Z,21.30
2019-02-17T12:05:33.519Z,21.30
2019-02-17T12:08:13.710Z,22.20
2019-02-17T12:10:54.140Z,22.70
2019-02-17T12:13:33.928Z,23.40
2019-02-17T12:16:14.094Z,23.60
2019-02-17T12:18:54.050Z,23.70
2019-02-17T12:24:53.840Z,25.40
2019-02-17T12:27:40.949Z,25.70
2019-02-17T12:30:12.836Z,27.20
2019-02-17T12:32:40.533Z,28.20
2019-02-17T12:35:20.471Z,28.50
2019-02-17T12:38:00.215Z,28.40
2019-02-17T12:40:30.689Z,28.30
2019-02-17T12:43:18.158Z,27.90
2019-02-17T12:45:58.623Z,27.70
2019-02-17T12:48:39.859Z,27.20
2019-02-17T12:51:19.537Z,27.60
2019-02-17T12:53:59.889Z,28.00
2019-02-17T12:56:40.317Z,27.60
2019-02-17T12:59:20.468Z,27.30
2019-02-17T13:02:00.424Z,27.20
2019-02-17T13:04:40.361Z,26.50
2019-02-17T13:07:20.370Z,27.10
2019-02-17T13:10:00.768Z,27.60
2019-02-17T13:12:40.810Z,28.10
2019-02-17T13:15:20.942Z,27.40
2019-02-17T13:17:48.330Z,26.50
2019-02-17T13:20:15.766Z,26.40
2019-02-17T13:22:55.631Z,26.30
2019-02-17T13:25:38.079Z,26.50
2019-02-17T13:28:17.867Z,26.40
2019-02-17T13:30:57.917Z,26.20
2019-02-17T13:33:39.375Z,26.20
2019-02-17T13:36:07.277Z,26.30
2019-02-17T13:38:54.668Z,26.20
2019-02-17T13:41:22.331Z,26.10
2019-02-17T13:44:02.072Z,25.90
2019-02-17T13:46:42.258Z,26.40
2019-02-17T13:49:22.910Z,26.40
2019-02-17T13:52:03.448Z,25.90
2019-02-17T13:54:47.585Z,25.00
2019-02-17T13:57:27.605Z,23.80
2019-02-17T14:00:07.887Z,22.90
2019-02-17T14:02:47.514Z,21.90
2019-02-17T14:05:27.494Z,21.40
2019-02-17T14:08:07.621Z,20.90
2019-02-17T14:10:50.846Z,20.70
2019-02-17T14:13:33.165Z,20.60
2019-02-17T14:16:12.959Z,20.30
2019-02-17T14:18:52.822Z,20.20
2019-02-17T14:21:32.649Z,19.80
2019-02-17T14:24:12.482Z,19.30
2019-02-17T14:26:52.423Z,19.30
2019-02-17T14:29:34.400Z,19.10
2019-02-17T14:32:15.619Z,18.90
2019-02-17T14:34:55.527Z,18.80
2019-02-17T14:37:37.133Z,18.80
2019-02-17T14:40:18.723Z,18.80
2019-02-17T14:42:58.883Z,18.60
2019-02-17T14:45:38.951Z,18.50
2019-02-17T14:48:21.032Z,18.40
2019-02-17T14:51:01.178Z,18.40
2019-02-17T14:53:40.889Z,18.40
2019-02-17T14:56:21.087Z,18.20
2019-02-17T14:59:02.560Z,18.20
2019-02-17T15:01:43.082Z,18.00
2019-02-17T15:04:23.375Z,18.00
2019-02-17T15:07:03.543Z,18.00
2019-02-17T15:09:43.699Z,17.90
2019-02-17T15:12:23.595Z,17.80
2019-02-17T15:15:03.553Z,17.70
2019-02-17T15:17:45.125Z,17.70
2019-02-17T15:20:25.523Z,17.60
2019-02-17T15:23:05.677Z,17.50
2019-02-17T15:25:45.784Z,17.40
2019-02-17T15:28:25.673Z,17.40
2019-02-17T15:31:05.683Z,17.30
2019-02-17T15:33:45.737Z,17.20
2019-02-17T15:36:25.851Z,17.20
2019-02-17T15:39:05.915Z,17.20
2019-02-17T15:41:46.801Z,17.10
2019-02-17T15:44:26.914Z,17.00
2019-02-17T15:47:07.498Z,16.90
2019-02-17T15:49:45.580Z,16.70
2019-02-17T15:52:32.456Z,16.60
2019-02-17T15:55:12.693Z,16.50
2019-02-17T15:57:52.840Z,16.40
2019-02-17T16:00:33.155Z,16.40
2019-02-17T16:03:11.186Z,16.20
2019-02-17T16:05:58.069Z,16.10
2019-02-17T16:08:38.123Z,16.00
2019-02-17T16:11:05.553Z,15.90
2019-02-17T16:13:52.463Z,15.70
2019-02-17T16:19:31.591Z,15.40
2019-02-17T16:22:12.716Z,15.20
2019-02-17T16:24:53.115Z,15.20
2019-02-17T16:27:33.315Z,15.20
2019-02-17T16:30:13.219Z,15.10
2019-02-17T16:32:53.977Z,15.00
2019-02-17T16:35:34.479Z,15.00
2019-02-17T16:38:14.343Z,15.00
2019-02-17T16:40:54.359Z,15.00
2019-02-17T16:43:21.835Z,15.00
2019-02-17T16:45:49.235Z,14.90
2019-02-17T16:48:16.621Z,14.60
2019-02-17T16:50:56.676Z,14.40
2019-02-17T16:53:36.750Z,14.20
2019-02-17T16:56:17.104Z,14.10
2019-02-17T16:58:57.211Z,13.90
2019-02-17T17:01:24.691Z,13.90
2019-02-17T17:03:52.499Z,13.70
2019-02-17T17:06:39.678Z,13.50
2019-02-17T17:09:19.103Z,13.40
2019-02-17T17:12:06.289Z,13.50
2019-02-17T17:14:47.046Z,13.50
2019-02-17T17:17:26.838Z,13.40
2019-02-17T17:20:07.908Z,13.40
2019-02-17T17:22:48.162Z,13.20
2019-02-17T17:25:28.175Z,13.10
2019-02-17T17:28:08.099Z,12.90
2019-02-17T17:30:48.320Z,12.70
2019-02-17T17:33:28.078Z,13.10
2019-02-17T17:36:08.208Z,13.20
2019-02-17T17:38:48.379Z,13.20
2019-02-17T17:41:28.333Z,13.40
2019-02-17T17:44:08.326Z,13.50
2019-02-17T17:46:48.281Z,13.60
2019-02-17T17:49:28.959Z,13.50
2019-02-17T17:52:08.415Z,13.60
2019-02-17T17:54:48.470Z,13.70
2019-02-17T17:57:29.501Z,13.70
2019-02-17T18:00:09.527Z,13.60
2019-02-17T18:02:49.704Z,13.60
2019-02-17T18:05:29.941Z,13.60
2019-02-17T18:07:57.422Z,13.50
2019-02-17T18:10:37.787Z,13.40
2019-02-17T18:13:05.171Z,13.30
2019-02-17T18:15:52.067Z,13.40
2019-02-17T18:18:32.482Z,13.30
2019-02-17T18:21:12.447Z,13.20
2019-02-17T18:23:52.431Z,13.00
2019-02-17T18:26:32.811Z,13.10
2019-02-17T18:29:00.266Z,13.10
2019-02-17T18:31:39.798Z,13.00
2019-02-17T18:34:19.631Z,12.80
2019-02-17T18:36:59.721Z,12.70
2019-02-17T18:39:39.585Z,12.60
2019-02-17T18:42:19.675Z,12.60
2019-02-17T18:44:59.743Z,12.60
2019-02-17T18:47:39.718Z,12.60
2019-02-17T18:50:11.458Z,12.60
2019-02-17T18:52:38.984Z,12.50
2019-02-17T18:55:08.898Z,12.40
2019-02-17T18:57:55.920Z,12.40
2019-02-17T19:00:36.337Z,12.50
2019-02-17T19:03:03.807Z,12.40
2019-02-17T19:05:50.754Z,12.40
2019-02-17T19:08:18.247Z,12.30
2019-02-17T19:11:05.110Z,12.10
2019-02-17T19:13:45.433Z,12.00
2019-02-17T19:16:13.129Z,11.80
2019-02-17T19:19:02.494Z,11.70
2019-02-17T19:21:30.012Z,11.70
2019-02-17T19:24:16.905Z,11.60
2019-02-17T19:26:56.739Z,11.60
2019-02-17T19:29:36.958Z,11.60
2019-02-17T19:32:17.103Z,11.50
2019-02-17T19:34:44.542Z,11.30
2019-02-17T19:37:31.453Z,11.20
2019-02-17T19:39:58.746Z,11.10
2019-02-17T19:42:26.156Z,11.10
2019-02-17T19:44:53.550Z,11.00
2019-02-17T19:47:40.358Z,10.90
2019-02-17T19:50:22.091Z,10.80
2019-02-17T19:53:02.128Z,10.60
2019-02-17T19:55:42.443Z,10.50
2019-02-17T19:58:22.296Z,10.60
2019-02-17T20:01:02.321Z,10.50
2019-02-17T20:06:44.909Z,10.30
2019-02-17T20:09:24.835Z,10.20
2019-02-17T20:12:05.118Z,10.20
2019-02-17T20:14:45.020Z,10.30
2019-02-17T20:17:24.894Z,10.50
2019-02-17T20:20:04.862Z,10.50
2019-02-17T20:22:44.615Z,10.50
2019-02-17T20:25:24.572Z,10.60
2019-02-17T20:28:04.527Z,10.50
2019-02-17T20:30:44.434Z,10.30
2019-02-17T20:39:24.778Z,10.20
2019-02-17T20:42:04.753Z,9.90
2019-02-17T20:44:44.844Z,9.80
2019-02-17T20:47:24.941Z,9.70
2019-02-17T20:50:04.883Z,9.70
2019-02-17T20:52:45.054Z,9.60
2019-02-17T20:55:26.038Z,9.40
2019-02-17T20:58:05.998Z,9.30
2019-02-17T21:00:46.095Z,9.30
2019-02-17T21:03:26.043Z,9.40
2019-02-17T21:06:12.473Z,9.30
2019-02-17T21:08:47.940Z,12.70
2019-02-17T21:11:27.883Z,11.40
2019-02-17T21:14:07.903Z,10.50
2019-02-17T21:16:47.853Z,10.00
2019-02-17T21:19:27.980Z,9.80
2019-02-17T21:22:07.963Z,9.50
2019-02-17T21:24:48.043Z,9.20
2019-02-17T21:27:28.279Z,9.20
2019-02-17T21:30:08.257Z,8.80
2019-02-17T21:32:48.434Z,8.90
2019-02-17T21:35:28.384Z,8.70
2019-02-17T21:38:08.495Z,8.80
2019-02-17T21:40:48.522Z,8.60
2019-02-17T21:43:28.576Z,8.40
2019-02-17T21:46:08.487Z,8.50
2019-02-17T21:48:48.466Z,8.50
2019-02-17T21:51:28.381Z,8.50
2019-02-17T21:54:08.473Z,8.50
2019-02-17T21:56:48.658Z,8.40
2019-02-17T21:59:28.816Z,8.50
2019-02-17T22:02:08.810Z,8.30
2019-02-17T22:04:48.814Z,8.10
2019-02-17T22:10:15.647Z,8.00
2019-02-17T22:13:02.534Z,7.90
2019-02-17T22:15:49.437Z,7.90
2019-02-17T22:18:29.836Z,7.80
2019-02-17T22:21:09.421Z,7.70
2019-02-17T22:23:49.600Z,7.60
2019-02-17T22:26:29.759Z,7.60
2019-02-17T22:29:09.322Z,7.50
2019-02-17T22:31:49.571Z,7.50
2019-02-17T22:34:30.271Z,7.50
2019-02-17T22:37:10.741Z,7.40
2019-02-17T22:39:50.674Z,7.40
2019-02-17T22:42:30.714Z,7.30
2019-02-17T22:45:10.903Z,7.20
2019-02-17T22:47:38.360Z,7.20
2019-02-17T22:50:25.235Z,7.20
2019-02-17T22:53:05.219Z,7.20
2019-02-17T22:55:45.087Z,7.10
2019-02-17T22:58:25.095Z,7.10
2019-02-17T23:01:06.929Z,7.10
2019-02-17T23:03:48.177Z,7.00
2019-02-17T23:06:27.900Z,7.10
2019-02-17T23:09:08.101Z,7.10
2019-02-17T23:11:49.055Z,7.00
2019-02-17T23:14:29.355Z,7.00
2019-02-17T23:17:09.172Z,7.10
2019-02-17T23:19:49.223Z,7.10
2019-02-17T23:22:30.225Z,7.10
2019-02-17T23:25:10.297Z,7.10
2019-02-17T23:27:50.290Z,7.20
2019-02-17T23:30:30.405Z,7.10
2019-02-17T23:33:10.381Z,7.10
2019-02-17T23:35:50.619Z,7.10
2019-02-17T23:38:30.666Z,7.10
2019-02-17T23:41:10.698Z,7.10
2019-02-17T23:43:50.628Z,7.10
2019-02-17T23:46:30.756Z,7.20
2019-02-17T23:49:10.673Z,7.20
2019-02-17T23:51:50.656Z,7.10
2019-02-17T23:54:30.785Z,7.40
2019-02-17T23:56:58.179Z,7.40
2019-02-17T23:59:45.100Z,7.20
